sensor_id;sensor_type;location;lat;lon;timestamp;temperature;humidity
21353;DHT22;10834;52.268;6.770;2023-08-12T00:00:25;20.50;99.90
21353;DHT22;10834;52.268;6.770;2023-08-12T00:03:11;20.50;99.90
21353;DHT22;10834;52.268;6.770;2023-08-12T00:05:58;20.50;99.90
21353;DHT22;10834;52.268;6.770;2023-08-12T00:08:46;20.50;99.90
21353;DHT22;10834;52.268;6.770;2023-08-12T00:11:32;20.50;99.90
21353;DHT22;10834;52.268;6.770;2023-08-12T00:14:18;20.40;99.90
21353;DHT22;10834;52.268;6.770;2023-08-12T00:17:05;20.40;99.90
21353;DHT22;10834;52.268;6.770;2023-08-12T00:19:51;20.40;99.90
21353;DHT22;10834;52.268;6.770;2023-08-12T00:22:37;20.40;99.90
21353;DHT22;10834;52.268;6.770;2023-08-12T00:25:24;20.40;99.90
21353;DHT22;10834;52.268;6.770;2023-08-12T00:28:10;20.40;99.90
21353;DHT22;10834;52.268;6.770;2023-08-12T00:30:56;20.40;99.90
21353;DHT22;10834;52.268;6.770;2023-08-12T00:33:42;20.40;99.90
21353;DHT22;10834;52.268;6.770;2023-08-12T00:36:28;20.30;99.90
21353;DHT22;10834;52.268;6.770;2023-08-12T00:39:14;20.30;99.90
21353;DHT22;10834;52.268;6.770;2023-08-12T00:42:00;20.30;99.90
21353;DHT22;10834;52.268;6.770;2023-08-12T00:44:46;20.20;99.90
21353;DHT22;10834;52.268;6.770;2023-08-12T00:47:32;20.30;99.90
21353;DHT22;10834;52.268;6.770;2023-08-12T00:50:18;20.30;99.90
21353;DHT22;10834;52.268;6.770;2023-08-12T00:53:05;20.30;99.90
21353;DHT22;10834;52.268;6.770;2023-08-12T00:55:52;20.30;99.90
21353;DHT22;10834;52.268;6.770;2023-08-12T00:58:39;20.20;99.90
21353;DHT22;10834;52.268;6.770;2023-08-12T01:01:25;20.20;99.90
21353;DHT22;10834;52.268;6.770;2023-08-12T01:04:12;20.20;99.90
21353;DHT22;10834;52.268;6.770;2023-08-12T01:06:58;20.20;99.90
21353;DHT22;10834;52.268;6.770;2023-08-12T01:09:44;20.20;99.90
21353;DHT22;10834;52.268;6.770;2023-08-12T01:12:36;20.20;99.90
21353;DHT22;10834;52.268;6.770;2023-08-12T01:15:24;20.20;99.90
21353;DHT22;10834;52.268;6.770;2023-08-12T01:18:12;20.20;99.90
21353;DHT22;10834;52.268;6.770;2023-08-12T01:20:59;20.20;99.90
21353;DHT22;10834;52.268;6.770;2023-08-12T01:23:49;20.20;99.90
21353;DHT22;10834;52.268;6.770;2023-08-12T01:26:35;20.20;99.90
21353;DHT22;10834;52.268;6.770;2023-08-12T01:29:21;20.10;99.90
21353;DHT22;10834;52.268;6.770;2023-08-12T01:32:14;20.20;99.90
21353;DHT22;10834;52.268;6.770;2023-08-12T01:35:14;20.20;99.90
21353;DHT22;10834;52.268;6.770;2023-08-12T01:38:04;20.20;99.90
21353;DHT22;10834;52.268;6.770;2023-08-12T01:40:52;20.20;99.90
21353;DHT22;10834;52.268;6.770;2023-08-12T01:43:39;20.20;99.90
21353;DHT22;10834;52.268;6.770;2023-08-12T01:46:26;20.20;99.90
21353;DHT22;10834;52.268;6.770;2023-08-12T01:49:12;20.20;99.90
21353;DHT22;10834;52.268;6.770;2023-08-12T01:51:58;20.20;99.90
21353;DHT22;10834;52.268;6.770;2023-08-12T01:54:44;20.10;99.90
21353;DHT22;10834;52.268;6.770;2023-08-12T01:57:30;20.20;99.90
21353;DHT22;10834;52.268;6.770;2023-08-12T02:00:16;20.20;99.90
21353;DHT22;10834;52.268;6.770;2023-08-12T02:03:02;20.10;99.90
21353;DHT22;10834;52.268;6.770;2023-08-12T02:05:48;20.20;99.90
21353;DHT22;10834;52.268;6.770;2023-08-12T02:08:34;20.10;99.90
21353;DHT22;10834;52.268;6.770;2023-08-12T02:11:21;20.10;99.90
21353;DHT22;10834;52.268;6.770;2023-08-12T02:14:07;20.10;99.90
21353;DHT22;10834;52.268;6.770;2023-08-12T02:16:53;20.10;99.90
21353;DHT22;10834;52.268;6.770;2023-08-12T02:19:39;20.10;99.90
21353;DHT22;10834;52.268;6.770;2023-08-12T02:22:25;20.10;99.90
21353;DHT22;10834;52.268;6.770;2023-08-12T02:25:11;20.10;99.90
21353;DHT22;10834;52.268;6.770;2023-08-12T02:27:57;20.00;99.90
21353;DHT22;10834;52.268;6.770;2023-08-12T02:30:43;20.10;99.90
21353;DHT22;10834;52.268;6.770;2023-08-12T02:33:29;20.10;99.90
21353;DHT22;10834;52.268;6.770;2023-08-12T02:36:15;20.10;99.90
21353;DHT22;10834;52.268;6.770;2023-08-12T02:39:02;20.10;99.90
21353;DHT22;10834;52.268;6.770;2023-08-12T02:41:48;20.10;99.90
21353;DHT22;10834;52.268;6.770;2023-08-12T02:44:34;20.00;99.90
21353;DHT22;10834;52.268;6.770;2023-08-12T02:47:20;20.10;99.90
21353;DHT22;10834;52.268;6.770;2023-08-12T02:50:06;20.00;99.90
21353;DHT22;10834;52.268;6.770;2023-08-12T02:52:53;20.00;99.90
21353;DHT22;10834;52.268;6.770;2023-08-12T02:55:39;20.00;99.90
21353;DHT22;10834;52.268;6.770;2023-08-12T02:58:25;20.00;99.90
21353;DHT22;10834;52.268;6.770;2023-08-12T03:01:11;20.00;99.90
21353;DHT22;10834;52.268;6.770;2023-08-12T03:03:57;20.00;99.90
21353;DHT22;10834;52.268;6.770;2023-08-12T03:06:43;19.90;99.90
21353;DHT22;10834;52.268;6.770;2023-08-12T03:09:29;19.90;99.90
21353;DHT22;10834;52.268;6.770;2023-08-12T03:12:15;19.90;99.90
21353;DHT22;10834;52.268;6.770;2023-08-12T03:15:02;19.90;99.90
21353;DHT22;10834;52.268;6.770;2023-08-12T03:17:49;19.90;99.90
21353;DHT22;10834;52.268;6.770;2023-08-12T03:20:35;19.90;99.90
21353;DHT22;10834;52.268;6.770;2023-08-12T03:23:22;19.90;99.90
21353;DHT22;10834;52.268;6.770;2023-08-12T03:26:08;19.90;99.90
21353;DHT22;10834;52.268;6.770;2023-08-12T03:28:54;19.90;99.90
21353;DHT22;10834;52.268;6.770;2023-08-12T03:31:40;19.90;99.90
21353;DHT22;10834;52.268;6.770;2023-08-12T03:34:28;19.90;99.90
21353;DHT22;10834;52.268;6.770;2023-08-12T03:37:15;19.90;99.90
21353;DHT22;10834;52.268;6.770;2023-08-12T03:40:01;19.90;99.90
21353;DHT22;10834;52.268;6.770;2023-08-12T03:42:47;19.90;99.90
21353;DHT22;10834;52.268;6.770;2023-08-12T03:45:40;19.90;99.90
21353;DHT22;10834;52.268;6.770;2023-08-12T03:48:27;19.90;99.90
21353;DHT22;10834;52.268;6.770;2023-08-12T03:51:13;19.80;99.90
21353;DHT22;10834;52.268;6.770;2023-08-12T03:53:59;19.90;99.90
21353;DHT22;10834;52.268;6.770;2023-08-12T03:56:45;19.80;99.90
21353;DHT22;10834;52.268;6.770;2023-08-12T03:59:31;19.80;99.90
21353;DHT22;10834;52.268;6.770;2023-08-12T04:02:17;19.80;99.90
21353;DHT22;10834;52.268;6.770;2023-08-12T04:05:03;19.80;99.90
21353;DHT22;10834;52.268;6.770;2023-08-12T04:07:50;19.80;99.90
21353;DHT22;10834;52.268;6.770;2023-08-12T04:10:36;19.80;99.90
21353;DHT22;10834;52.268;6.770;2023-08-12T04:13:22;19.80;99.90
21353;DHT22;10834;52.268;6.770;2023-08-12T04:16:08;19.80;99.90
21353;DHT22;10834;52.268;6.770;2023-08-12T04:18:54;19.80;99.90
21353;DHT22;10834;52.268;6.770;2023-08-12T04:21:40;19.70;99.90
21353;DHT22;10834;52.268;6.770;2023-08-12T04:24:26;19.70;99.90
21353;DHT22;10834;52.268;6.770;2023-08-12T04:27:12;19.80;99.90
21353;DHT22;10834;52.268;6.770;2023-08-12T04:29:58;19.80;99.90
21353;DHT22;10834;52.268;6.770;2023-08-12T04:32:44;19.80;99.90
21353;DHT22;10834;52.268;6.770;2023-08-12T04:35:31;19.70;99.90
21353;DHT22;10834;52.268;6.770;2023-08-12T04:38:18;19.80;99.90
21353;DHT22;10834;52.268;6.770;2023-08-12T04:41:04;19.70;99.90
21353;DHT22;10834;52.268;6.770;2023-08-12T04:43:50;19.70;99.90
21353;DHT22;10834;52.268;6.770;2023-08-12T04:46:36;19.70;99.90
21353;DHT22;10834;52.268;6.770;2023-08-12T04:49:22;19.70;99.90
21353;DHT22;10834;52.268;6.770;2023-08-12T04:52:09;19.70;99.90
21353;DHT22;10834;52.268;6.770;2023-08-12T04:54:55;19.70;99.90
21353;DHT22;10834;52.268;6.770;2023-08-12T04:57:41;19.70;99.90
21353;DHT22;10834;52.268;6.770;2023-08-12T05:00:27;19.70;99.90
21353;DHT22;10834;52.268;6.770;2023-08-12T05:03:13;19.70;99.90
21353;DHT22;10834;52.268;6.770;2023-08-12T05:05:59;19.70;99.90
21353;DHT22;10834;52.268;6.770;2023-08-12T05:08:46;19.70;99.90
21353;DHT22;10834;52.268;6.770;2023-08-12T05:11:32;19.70;99.90
21353;DHT22;10834;52.268;6.770;2023-08-12T05:14:18;19.70;99.90
21353;DHT22;10834;52.268;6.770;2023-08-12T05:17:05;19.70;99.90
21353;DHT22;10834;52.268;6.770;2023-08-12T05:19:51;19.70;99.90
21353;DHT22;10834;52.268;6.770;2023-08-12T05:22:37;19.80;99.90
21353;DHT22;10834;52.268;6.770;2023-08-12T05:25:23;19.80;99.90
21353;DHT22;10834;52.268;6.770;2023-08-12T05:28:09;19.80;99.90
21353;DHT22;10834;52.268;6.770;2023-08-12T05:30:55;19.90;99.90
21353;DHT22;10834;52.268;6.770;2023-08-12T05:33:41;19.90;99.90
21353;DHT22;10834;52.268;6.770;2023-08-12T05:36:27;20.00;99.90
21353;DHT22;10834;52.268;6.770;2023-08-12T05:39:13;20.00;99.90
21353;DHT22;10834;52.268;6.770;2023-08-12T05:42:01;20.10;99.90
21353;DHT22;10834;52.268;6.770;2023-08-12T05:44:47;20.20;99.90
21353;DHT22;10834;52.268;6.770;2023-08-12T05:47:33;20.30;99.90
21353;DHT22;10834;52.268;6.770;2023-08-12T05:50:19;20.40;99.90
21353;DHT22;10834;52.268;6.770;2023-08-12T05:53:05;20.50;99.90
21353;DHT22;10834;52.268;6.770;2023-08-12T05:55:51;20.60;99.90
21353;DHT22;10834;52.268;6.770;2023-08-12T05:58:37;20.80;99.90
21353;DHT22;10834;52.268;6.770;2023-08-12T06:01:23;21.00;99.90
21353;DHT22;10834;52.268;6.770;2023-08-12T06:04:09;21.10;99.90
21353;DHT22;10834;52.268;6.770;2023-08-12T06:06:55;21.10;99.90
21353;DHT22;10834;52.268;6.770;2023-08-12T06:09:41;21.10;99.90
21353;DHT22;10834;52.268;6.770;2023-08-12T06:12:27;21.00;99.90
21353;DHT22;10834;52.268;6.770;2023-08-12T06:15:13;21.00;99.90
21353;DHT22;10834;52.268;6.770;2023-08-12T06:18:00;21.00;99.90
21353;DHT22;10834;52.268;6.770;2023-08-12T06:20:46;21.00;99.90
21353;DHT22;10834;52.268;6.770;2023-08-12T06:23:32;20.90;99.90
21353;DHT22;10834;52.268;6.770;2023-08-12T06:26:18;20.90;99.90
21353;DHT22;10834;52.268;6.770;2023-08-12T06:29:04;20.90;99.90
21353;DHT22;10834;52.268;6.770;2023-08-12T06:31:52;20.90;99.90
21353;DHT22;10834;52.268;6.770;2023-08-12T06:34:38;20.80;99.90
21353;DHT22;10834;52.268;6.770;2023-08-12T06:37:24;20.80;99.90
21353;DHT22;10834;52.268;6.770;2023-08-12T06:40:10;20.70;99.90
21353;DHT22;10834;52.268;6.770;2023-08-12T06:42:56;20.60;99.90
21353;DHT22;10834;52.268;6.770;2023-08-12T06:45:42;20.60;99.90
21353;DHT22;10834;52.268;6.770;2023-08-12T06:48:29;20.50;99.90
21353;DHT22;10834;52.268;6.770;2023-08-12T06:51:15;20.40;99.90
21353;DHT22;10834;52.268;6.770;2023-08-12T06:54:01;20.40;99.90
21353;DHT22;10834;52.268;6.770;2023-08-12T06:56:47;20.30;99.90
21353;DHT22;10834;52.268;6.770;2023-08-12T06:59:33;20.30;99.90
21353;DHT22;10834;52.268;6.770;2023-08-12T07:02:19;20.30;99.90
21353;DHT22;10834;52.268;6.770;2023-08-12T07:05:05;20.20;99.90
21353;DHT22;10834;52.268;6.770;2023-08-12T07:07:52;20.20;99.90
21353;DHT22;10834;52.268;6.770;2023-08-12T07:10:41;20.10;99.90
21353;DHT22;10834;52.268;6.770;2023-08-12T07:13:27;20.10;99.90
21353;DHT22;10834;52.268;6.770;2023-08-12T07:16:13;20.10;99.90
21353;DHT22;10834;52.268;6.770;2023-08-12T07:18:59;20.00;99.90
21353;DHT22;10834;52.268;6.770;2023-08-12T07:21:45;20.00;99.90
21353;DHT22;10834;52.268;6.770;2023-08-12T07:24:31;20.00;99.90
21353;DHT22;10834;52.268;6.770;2023-08-12T07:27:17;19.90;99.90
21353;DHT22;10834;52.268;6.770;2023-08-12T07:30:04;19.90;99.90
21353;DHT22;10834;52.268;6.770;2023-08-12T07:32:50;19.90;99.90
21353;DHT22;10834;52.268;6.770;2023-08-12T07:35:36;19.90;99.90
21353;DHT22;10834;52.268;6.770;2023-08-12T07:38:22;19.90;99.90
21353;DHT22;10834;52.268;6.770;2023-08-12T07:41:08;19.90;99.90
21353;DHT22;10834;52.268;6.770;2023-08-12T07:43:54;19.90;99.90
21353;DHT22;10834;52.268;6.770;2023-08-12T07:46:40;19.90;99.90
21353;DHT22;10834;52.268;6.770;2023-08-12T07:49:26;19.80;99.90
21353;DHT22;10834;52.268;6.770;2023-08-12T07:52:12;19.80;99.90
21353;DHT22;10834;52.268;6.770;2023-08-12T07:54:58;19.80;99.90
21353;DHT22;10834;52.268;6.770;2023-08-12T07:57:45;19.80;99.90
21353;DHT22;10834;52.268;6.770;2023-08-12T08:00:33;19.80;99.90
21353;DHT22;10834;52.268;6.770;2023-08-12T08:03:19;19.80;99.90
21353;DHT22;10834;52.268;6.770;2023-08-12T08:06:05;19.80;99.90
21353;DHT22;10834;52.268;6.770;2023-08-12T08:08:51;19.80;99.90
21353;DHT22;10834;52.268;6.770;2023-08-12T08:11:37;19.80;99.90
21353;DHT22;10834;52.268;6.770;2023-08-12T08:14:23;19.80;99.90
21353;DHT22;10834;52.268;6.770;2023-08-12T08:17:09;19.90;99.90
21353;DHT22;10834;52.268;6.770;2023-08-12T08:19:55;20.00;99.90
21353;DHT22;10834;52.268;6.770;2023-08-12T08:22:41;20.00;99.90
21353;DHT22;10834;52.268;6.770;2023-08-12T08:25:27;20.10;99.90
21353;DHT22;10834;52.268;6.770;2023-08-12T08:28:14;20.10;99.90
21353;DHT22;10834;52.268;6.770;2023-08-12T08:31:00;20.10;99.90
21353;DHT22;10834;52.268;6.770;2023-08-12T08:33:46;20.00;99.90
21353;DHT22;10834;52.268;6.770;2023-08-12T08:36:32;20.00;99.90
21353;DHT22;10834;52.268;6.770;2023-08-12T08:39:18;20.00;99.90
21353;DHT22;10834;52.268;6.770;2023-08-12T08:42:05;20.10;99.90
21353;DHT22;10834;52.268;6.770;2023-08-12T08:44:53;20.20;99.90
21353;DHT22;10834;52.268;6.770;2023-08-12T08:47:39;20.30;99.90
21353;DHT22;10834;52.268;6.770;2023-08-12T08:50:28;20.40;99.90
21353;DHT22;10834;52.268;6.770;2023-08-12T08:53:16;20.40;99.90
21353;DHT22;10834;52.268;6.770;2023-08-12T08:56:08;20.40;99.90
21353;DHT22;10834;52.268;6.770;2023-08-12T08:58:57;20.50;99.90
21353;DHT22;10834;52.268;6.770;2023-08-12T09:01:43;20.60;99.90
21353;DHT22;10834;52.268;6.770;2023-08-12T09:04:33;20.70;99.90
21353;DHT22;10834;52.268;6.770;2023-08-12T09:07:20;20.60;99.90
21353;DHT22;10834;52.268;6.770;2023-08-12T09:10:07;20.60;99.90
21353;DHT22;10834;52.268;6.770;2023-08-12T09:12:57;20.60;99.90
21353;DHT22;10834;52.268;6.770;2023-08-12T09:15:43;20.60;99.90
21353;DHT22;10834;52.268;6.770;2023-08-12T09:18:29;20.60;99.90
21353;DHT22;10834;52.268;6.770;2023-08-12T09:21:15;20.60;99.90
21353;DHT22;10834;52.268;6.770;2023-08-12T09:24:05;20.50;99.90
21353;DHT22;10834;52.268;6.770;2023-08-12T09:26:52;20.50;99.90
21353;DHT22;10834;52.268;6.770;2023-08-12T09:29:38;20.50;99.90
21353;DHT22;10834;52.268;6.770;2023-08-12T09:32:24;20.40;99.90
21353;DHT22;10834;52.268;6.770;2023-08-12T09:35:15;20.40;99.90
21353;DHT22;10834;52.268;6.770;2023-08-12T09:38:06;20.40;99.90
21353;DHT22;10834;52.268;6.770;2023-08-12T09:40:53;20.40;99.90
21353;DHT22;10834;52.268;6.770;2023-08-12T09:43:41;20.40;99.90
21353;DHT22;10834;52.268;6.770;2023-08-12T09:46:28;20.40;99.90
21353;DHT22;10834;52.268;6.770;2023-08-12T09:49:14;20.50;99.90
21353;DHT22;10834;52.268;6.770;2023-08-12T09:52:04;20.50;99.90
21353;DHT22;10834;52.268;6.770;2023-08-12T09:54:52;20.60;99.90
21353;DHT22;10834;52.268;6.770;2023-08-12T09:57:42;20.60;99.90
21353;DHT22;10834;52.268;6.770;2023-08-12T10:00:29;20.70;99.90
21353;DHT22;10834;52.268;6.770;2023-08-12T10:03:17;20.70;99.90
21353;DHT22;10834;52.268;6.770;2023-08-12T10:06:05;20.80;99.90
21353;DHT22;10834;52.268;6.770;2023-08-12T10:08:51;20.90;99.90
21353;DHT22;10834;52.268;6.770;2023-08-12T10:11:38;21.00;99.90
21353;DHT22;10834;52.268;6.770;2023-08-12T10:14:25;21.10;99.90
21353;DHT22;10834;52.268;6.770;2023-08-12T10:17:12;21.30;99.90
21353;DHT22;10834;52.268;6.770;2023-08-12T10:20:01;21.40;99.90
21353;DHT22;10834;52.268;6.770;2023-08-12T10:22:51;21.50;99.90
21353;DHT22;10834;52.268;6.770;2023-08-12T10:25:37;21.60;99.90
21353;DHT22;10834;52.268;6.770;2023-08-12T10:28:28;21.70;99.90
21353;DHT22;10834;52.268;6.770;2023-08-12T10:31:15;21.80;99.90
21353;DHT22;10834;52.268;6.770;2023-08-12T10:34:01;21.90;99.90
21353;DHT22;10834;52.268;6.770;2023-08-12T10:36:48;21.90;99.90
21353;DHT22;10834;52.268;6.770;2023-08-12T10:39:40;21.80;99.90
21353;DHT22;10834;52.268;6.770;2023-08-12T10:42:46;21.70;99.90
21353;DHT22;10834;52.268;6.770;2023-08-12T10:46:08;21.70;99.90
21353;DHT22;10834;52.268;6.770;2023-08-12T10:49:10;21.90;99.90
21353;DHT22;10834;52.268;6.770;2023-08-12T10:51:56;21.90;99.90
21353;DHT22;10834;52.268;6.770;2023-08-12T10:54:42;21.80;99.90
21353;DHT22;10834;52.268;6.770;2023-08-12T10:57:36;21.60;99.90
21353;DHT22;10834;52.268;6.770;2023-08-12T11:00:26;21.50;99.90
21353;DHT22;10834;52.268;6.770;2023-08-12T11:03:13;21.50;99.90
21353;DHT22;10834;52.268;6.770;2023-08-12T11:06:00;21.90;99.90
21353;DHT22;10834;52.268;6.770;2023-08-12T11:08:52;22.30;99.90
21353;DHT22;10834;52.268;6.770;2023-08-12T11:11:39;22.40;99.90
21353;DHT22;10834;52.268;6.770;2023-08-12T11:14:25;22.40;99.90
21353;DHT22;10834;52.268;6.770;2023-08-12T11:17:15;22.40;99.90
21353;DHT22;10834;52.268;6.770;2023-08-12T11:20:03;22.50;99.90
21353;DHT22;10834;52.268;6.770;2023-08-12T11:22:50;22.70;99.90
21353;DHT22;10834;52.268;6.770;2023-08-12T11:25:38;23.10;99.90
21353;DHT22;10834;52.268;6.770;2023-08-12T11:28:25;23.60;99.90
21353;DHT22;10834;52.268;6.770;2023-08-12T11:31:11;23.90;99.90
21353;DHT22;10834;52.268;6.770;2023-08-12T11:33:57;24.10;99.90
21353;DHT22;10834;52.268;6.770;2023-08-12T11:36:44;24.10;99.90
21353;DHT22;10834;52.268;6.770;2023-08-12T11:39:30;24.20;99.90
21353;DHT22;10834;52.268;6.770;2023-08-12T11:42:16;24.10;99.90
21353;DHT22;10834;52.268;6.770;2023-08-12T11:45:03;23.90;99.90
21353;DHT22;10834;52.268;6.770;2023-08-12T11:47:50;23.70;99.90
21353;DHT22;10834;52.268;6.770;2023-08-12T11:50:39;23.50;99.90
21353;DHT22;10834;52.268;6.770;2023-08-12T11:53:25;23.60;99.90
21353;DHT22;10834;52.268;6.770;2023-08-12T11:56:12;23.70;99.90
21353;DHT22;10834;52.268;6.770;2023-08-12T11:58:58;24.10;99.90
21353;DHT22;10834;52.268;6.770;2023-08-12T12:01:50;24.20;99.90
21353;DHT22;10834;52.268;6.770;2023-08-12T12:04:36;24.10;99.90
21353;DHT22;10834;52.268;6.770;2023-08-12T12:07:24;23.90;99.90
21353;DHT22;10834;52.268;6.770;2023-08-12T12:10:17;23.80;99.90
21353;DHT22;10834;52.268;6.770;2023-08-12T12:13:04;23.60;99.90
21353;DHT22;10834;52.268;6.770;2023-08-12T12:15:50;23.50;99.90
21353;DHT22;10834;52.268;6.770;2023-08-12T12:18:38;23.30;99.90
21353;DHT22;10834;52.268;6.770;2023-08-12T12:21:24;23.20;99.90
21353;DHT22;10834;52.268;6.770;2023-08-12T12:24:11;23.60;99.90
21353;DHT22;10834;52.268;6.770;2023-08-12T12:26:57;24.10;99.90
21353;DHT22;10834;52.268;6.770;2023-08-12T12:29:43;24.50;99.90
21353;DHT22;10834;52.268;6.770;2023-08-12T12:32:29;24.50;99.90
21353;DHT22;10834;52.268;6.770;2023-08-12T12:35:15;24.40;99.90
21353;DHT22;10834;52.268;6.770;2023-08-12T12:38:01;24.30;99.90
21353;DHT22;10834;52.268;6.770;2023-08-12T12:40:47;24.30;99.90
21353;DHT22;10834;52.268;6.770;2023-08-12T12:43:33;24.40;99.90
21353;DHT22;10834;52.268;6.770;2023-08-12T12:46:20;24.30;99.90
21353;DHT22;10834;52.268;6.770;2023-08-12T12:49:06;24.10;99.90
21353;DHT22;10834;52.268;6.770;2023-08-12T12:51:52;24.00;99.90
21353;DHT22;10834;52.268;6.770;2023-08-12T12:54:38;24.10;99.90
21353;DHT22;10834;52.268;6.770;2023-08-12T12:57:24;24.20;99.90
21353;DHT22;10834;52.268;6.770;2023-08-12T13:00:10;24.30;99.90
21353;DHT22;10834;52.268;6.770;2023-08-12T13:02:57;24.30;99.90
21353;DHT22;10834;52.268;6.770;2023-08-12T13:05:43;24.40;99.90
21353;DHT22;10834;52.268;6.770;2023-08-12T13:08:29;24.60;99.90
21353;DHT22;10834;52.268;6.770;2023-08-12T13:11:17;24.70;99.90
21353;DHT22;10834;52.268;6.770;2023-08-12T13:14:03;24.90;99.90
21353;DHT22;10834;52.268;6.770;2023-08-12T13:16:49;25.00;99.90
21353;DHT22;10834;52.268;6.770;2023-08-12T13:19:35;25.10;99.90
21353;DHT22;10834;52.268;6.770;2023-08-12T13:22:21;25.10;99.90
21353;DHT22;10834;52.268;6.770;2023-08-12T13:25:07;25.10;99.90
21353;DHT22;10834;52.268;6.770;2023-08-12T13:27:54;25.00;99.90
21353;DHT22;10834;52.268;6.770;2023-08-12T13:30:40;24.90;99.90
21353;DHT22;10834;52.268;6.770;2023-08-12T13:33:27;24.80;99.90
21353;DHT22;10834;52.268;6.770;2023-08-12T13:36:13;24.70;99.90
21353;DHT22;10834;52.268;6.770;2023-08-12T13:38:59;24.70;99.90
21353;DHT22;10834;52.268;6.770;2023-08-12T13:41:45;24.80;99.90
21353;DHT22;10834;52.268;6.770;2023-08-12T13:44:31;24.80;99.90
21353;DHT22;10834;52.268;6.770;2023-08-12T13:47:17;24.70;99.90
21353;DHT22;10834;52.268;6.770;2023-08-12T13:50:03;24.60;99.90
21353;DHT22;10834;52.268;6.770;2023-08-12T13:52:49;24.40;99.90
21353;DHT22;10834;52.268;6.770;2023-08-12T13:55:36;24.30;99.90
21353;DHT22;10834;52.268;6.770;2023-08-12T13:58:22;24.20;99.90
21353;DHT22;10834;52.268;6.770;2023-08-12T14:01:08;24.10;99.90
21353;DHT22;10834;52.268;6.770;2023-08-12T14:03:54;24.10;99.90
21353;DHT22;10834;52.268;6.770;2023-08-12T14:06:40;24.20;99.90
21353;DHT22;10834;52.268;6.770;2023-08-12T14:09:26;24.10;99.90
21353;DHT22;10834;52.268;6.770;2023-08-12T14:12:12;24.10;99.90
21353;DHT22;10834;52.268;6.770;2023-08-12T14:14:58;24.10;99.90
21353;DHT22;10834;52.268;6.770;2023-08-12T14:17:44;24.10;99.90
21353;DHT22;10834;52.268;6.770;2023-08-12T14:20:30;24.00;99.90
21353;DHT22;10834;52.268;6.770;2023-08-12T14:23:16;23.90;99.90
21353;DHT22;10834;52.268;6.770;2023-08-12T14:26:02;23.80;99.90
21353;DHT22;10834;52.268;6.770;2023-08-12T14:28:48;23.80;99.90
21353;DHT22;10834;52.268;6.770;2023-08-12T14:31:34;23.80;99.90
21353;DHT22;10834;52.268;6.770;2023-08-12T14:34:21;23.80;99.90
21353;DHT22;10834;52.268;6.770;2023-08-12T14:37:07;23.80;99.90
21353;DHT22;10834;52.268;6.770;2023-08-12T14:39:53;23.80;99.90
21353;DHT22;10834;52.268;6.770;2023-08-12T14:42:40;23.70;99.90
21353;DHT22;10834;52.268;6.770;2023-08-12T14:45:26;23.50;99.90
21353;DHT22;10834;52.268;6.770;2023-08-12T14:48:12;23.30;99.90
21353;DHT22;10834;52.268;6.770;2023-08-12T14:51:00;23.30;99.90
21353;DHT22;10834;52.268;6.770;2023-08-12T14:53:46;23.20;99.90
21353;DHT22;10834;52.268;6.770;2023-08-12T14:56:33;23.00;99.90
21353;DHT22;10834;52.268;6.770;2023-08-12T14:59:19;22.80;99.90
21353;DHT22;10834;52.268;6.770;2023-08-12T15:02:06;22.60;99.90
21353;DHT22;10834;52.268;6.770;2023-08-12T15:04:53;22.60;99.90
21353;DHT22;10834;52.268;6.770;2023-08-12T15:07:39;22.60;99.90
21353;DHT22;10834;52.268;6.770;2023-08-12T15:10:25;22.60;99.90
21353;DHT22;10834;52.268;6.770;2023-08-12T15:13:15;22.60;99.90
21353;DHT22;10834;52.268;6.770;2023-08-12T15:16:01;22.60;99.90
21353;DHT22;10834;52.268;6.770;2023-08-12T15:18:47;22.50;99.90
21353;DHT22;10834;52.268;6.770;2023-08-12T15:21:33;22.40;99.90
21353;DHT22;10834;52.268;6.770;2023-08-12T15:24:19;22.30;99.90
21353;DHT22;10834;52.268;6.770;2023-08-12T15:27:05;22.30;99.90
21353;DHT22;10834;52.268;6.770;2023-08-12T15:29:51;22.30;99.90
21353;DHT22;10834;52.268;6.770;2023-08-12T15:32:37;22.40;99.90
21353;DHT22;10834;52.268;6.770;2023-08-12T15:35:23;22.40;99.90
21353;DHT22;10834;52.268;6.770;2023-08-12T15:38:09;22.40;99.90
21353;DHT22;10834;52.268;6.770;2023-08-12T15:40:55;22.30;99.90
21353;DHT22;10834;52.268;6.770;2023-08-12T15:43:42;22.20;99.90
21353;DHT22;10834;52.268;6.770;2023-08-12T15:46:28;22.10;99.90
21353;DHT22;10834;52.268;6.770;2023-08-12T15:49:14;22.10;99.90
21353;DHT22;10834;52.268;6.770;2023-08-12T15:52:00;22.10;99.90
21353;DHT22;10834;52.268;6.770;2023-08-12T15:54:49;22.00;99.90
21353;DHT22;10834;52.268;6.770;2023-08-12T15:57:35;22.00;99.90
21353;DHT22;10834;52.268;6.770;2023-08-12T16:00:21;22.00;99.90
21353;DHT22;10834;52.268;6.770;2023-08-12T16:03:07;21.90;99.90
21353;DHT22;10834;52.268;6.770;2023-08-12T16:05:57;21.80;99.90
21353;DHT22;10834;52.268;6.770;2023-08-12T16:08:44;21.70;99.90
21353;DHT22;10834;52.268;6.770;2023-08-12T16:11:31;21.70;99.90
21353;DHT22;10834;52.268;6.770;2023-08-12T16:14:17;21.60;99.90
21353;DHT22;10834;52.268;6.770;2023-08-12T16:17:03;21.60;99.90
21353;DHT22;10834;52.268;6.770;2023-08-12T16:19:54;21.60;99.90
21353;DHT22;10834;52.268;6.770;2023-08-12T16:22:40;21.60;99.90
21353;DHT22;10834;52.268;6.770;2023-08-12T16:25:26;21.60;99.90
21353;DHT22;10834;52.268;6.770;2023-08-12T16:28:12;21.60;99.90
21353;DHT22;10834;52.268;6.770;2023-08-12T16:30:58;21.60;99.90
21353;DHT22;10834;52.268;6.770;2023-08-12T16:33:44;21.50;99.90
21353;DHT22;10834;52.268;6.770;2023-08-12T16:36:30;21.40;99.90
21353;DHT22;10834;52.268;6.770;2023-08-12T16:39:16;21.40;99.90
21353;DHT22;10834;52.268;6.770;2023-08-12T16:42:02;21.30;99.90
21353;DHT22;10834;52.268;6.770;2023-08-12T16:44:48;21.10;99.90
21353;DHT22;10834;52.268;6.770;2023-08-12T16:47:35;21.00;99.90
21353;DHT22;10834;52.268;6.770;2023-08-12T16:50:21;21.00;99.90
21353;DHT22;10834;52.268;6.770;2023-08-12T16:53:07;20.90;99.90
21353;DHT22;10834;52.268;6.770;2023-08-12T16:55:53;20.80;99.90
21353;DHT22;10834;52.268;6.770;2023-08-12T16:58:39;20.70;99.90
21353;DHT22;10834;52.268;6.770;2023-08-12T17:01:26;20.70;99.90
21353;DHT22;10834;52.268;6.770;2023-08-12T17:04:12;20.60;99.90
21353;DHT22;10834;52.268;6.770;2023-08-12T17:06:58;20.60;99.90
21353;DHT22;10834;52.268;6.770;2023-08-12T17:09:44;20.50;99.90
21353;DHT22;10834;52.268;6.770;2023-08-12T17:12:30;20.40;99.90
21353;DHT22;10834;52.268;6.770;2023-08-12T17:15:16;20.40;99.90
21353;DHT22;10834;52.268;6.770;2023-08-12T17:18:03;20.40;99.90
21353;DHT22;10834;52.268;6.770;2023-08-12T17:20:49;20.30;99.90
21353;DHT22;10834;52.268;6.770;2023-08-12T17:23:35;20.30;99.90
21353;DHT22;10834;52.268;6.770;2023-08-12T17:26:21;20.30;99.90
21353;DHT22;10834;52.268;6.770;2023-08-12T17:29:07;20.30;99.90
21353;DHT22;10834;52.268;6.770;2023-08-12T17:31:53;20.20;99.90